Language selection

Features

My Weather Profile Weather Topics  | 

Pacific - North Coast: Past 24 Hour Conditions

 

East Dellwood - 46207

08:00 AM PST 05 March 2021Buoy position: 50.88N 129.93W
Disclaimer

This table is a summary of hourly weather conditions for the past 24 hours.
Please note that these observations might not always be representative of weather conditions over their associated marine area.

Date / Time
(PST)
Wind(knots) Wave height(m) Wave period(s) Pressure(kPa) Air tempC) Water tempC)
05 March 2021
8:00 NNE 29 gust 37 4.4 14.0 99.3 4 8
7:00 NE 27 gust 35 4.4 11.0 99.5 5 8
6:00 NE 25 gust 31 5.0 14.0 99.7 5 8
5:00 NNE 22 gust 27 4.6 15.0 99.8 7 8
4:00 NE 19 gust 27 5.0 11.0 100.0 7 8
3:00 NE 16 gust 22 5.4 10.0 100.3 7 8
2:00 ENE 10 gust 16 5.4 15.0 100.5 7 8
1:00 ESE 10 gust 16 5.6 10.0 100.7 7 8
0:00 SE 13 gust 19 5.6 10.0 100.8 7 8
04 March 2021
23:00 SE 17 gust 23 5.4 10.0 100.9 7 8
22:00 SSE 17 gust 23 6.3 10.0 100.9 8 8
21:00 SSE 19 gust 25 5.9 11.0 100.9 8 8
20:00 SSE 19 gust 25 6.3 11.0 100.8 8 8
19:00 S 25 gust 31 6.2 11.0 100.7 7 8
18:00 S 23 gust 29 6.8 12.0 100.6 7 8
17:00 S 29 gust 39 7.5 12.0 100.4 7 8
16:00 S 27 gust 35 7.6 12.0 100.2 7 8
15:00 S 33 gust 41 7.4 12.0 99.8 7 8
14:00 S 37 gust 46 8.5 11.0 99.5 7 8
13:00 SE 39 gust 51 8.7 11.0 99.1 8 8
12:00 ESE 43 gust 56 8.9 10.0 99.0 7 8
11:00 ESE 43 gust 55 7.7 11.0 99.2 6 8
10:00 ESE 39 gust 51 7.0 9.0 99.4 7 8
9:00 ESE 37 gust 51 6.6 11.0 99.5 7 8
8:00 ESE 35 gust 46 6.6 10.0 99.6 7 8

Zoom-in to make a selection

Map of Pacific - North Coast marine weather areas Middle Nomad - 46004 South Nomad - 46036 Dixon Entrance Central - 46145 South Moresby - 46147 Nanakwa Shoal - 46181 North Hecate Strait - 46183 North Nomad - 46184 South Hecate Strait - 46185 West Sea Otter - 46204 West Dixon Entrance - 46205 East Dellwood - 46207 West Moresby - 46208 Sartine Island Cape St.James Kindakun Rocks Langara Island Masset Municipal Airport Rose Spit Sandspit Airport Bella Bella Airport Bella Coola Airport Bonilla Island Cathedral Point Cumshewa Island Grey Islet Holland Rock Lucy Islands Lightstation Prince Rupert Airport
Legend:
buoy Buoy
land station Land Station

Pacific - North Coast Area

Another Region

What we are doing

Features

Need to travel Alberta Highway 93?

Go prepared with Highway 93 forecasts. Highway regions are available in the Alberta text forecast bulletin between Lake Louise and Jasper. (Photo by: Natalie Anderson)

Date modified: